createdAt,value
2024-02-22T00:00:17.772Z,6.21
2024-02-22T00:00:49.552Z,6.22
2024-02-22T00:01:21.594Z,6.26
2024-02-22T00:01:53.360Z,6.32
2024-02-22T00:02:29.426Z,6.26
2024-02-22T00:03:01.308Z,6.28
2024-02-22T00:03:33.069Z,6.25
2024-02-22T00:04:05.236Z,6.29
2024-02-22T00:04:37.097Z,6.26
2024-02-22T00:05:09.254Z,6.26
2024-02-22T00:05:41.257Z,6.29
2024-02-22T00:06:13.096Z,6.28
2024-02-22T00:06:45.009Z,6.25
2024-02-22T00:07:17.624Z,6.25
2024-02-22T00:07:49.437Z,6.22
2024-02-22T00:08:21.162Z,6.24
2024-02-22T00:08:53.552Z,6.25
2024-02-22T00:09:25.292Z,6.28
2024-02-22T00:09:58.475Z,6.26
2024-02-22T00:10:30.638Z,6.22
2024-02-22T00:11:02.959Z,6.21
2024-02-22T00:11:34.904Z,6.21
2024-02-22T00:12:07.233Z,6.17
2024-02-22T00:12:40.603Z,6.12
2024-02-22T00:13:12.749Z,6.04
2024-02-22T00:13:44.617Z,5.99
2024-02-22T00:14:16.569Z,5.95
2024-02-22T00:14:48.430Z,5.98
2024-02-22T00:15:20.178Z,5.98
2024-02-22T00:15:51.929Z,6.04
2024-02-22T00:16:24.282Z,5.91
2024-02-22T00:16:56.063Z,5.91
2024-02-22T00:17:29.717Z,5.87
2024-02-22T00:18:02.934Z,5.87
2024-02-22T00:18:34.901Z,5.95
2024-02-22T00:19:06.708Z,5.94
2024-02-22T00:19:38.586Z,5.98
2024-02-22T00:20:11.215Z,5.97
2024-02-22T00:20:42.982Z,5.97
2024-02-22T00:21:15.363Z,5.83
2024-02-22T00:21:47.152Z,5.84
2024-02-22T00:22:19.041Z,5.90
2024-02-22T00:22:50.794Z,5.91
2024-02-22T00:23:22.566Z,5.83
2024-02-22T00:23:54.295Z,5.77
2024-02-22T00:24:26.149Z,5.78
2024-02-22T00:24:58.004Z,5.75
2024-02-22T00:25:30.059Z,5.61
2024-02-22T00:26:02.286Z,5.67
2024-02-22T00:26:34.031Z,5.70
2024-02-22T00:27:05.820Z,5.70
2024-02-22T00:27:38.231Z,5.70
2024-02-22T00:28:09.953Z,5.59
2024-02-22T00:28:41.865Z,5.57
2024-02-22T00:29:13.678Z,5.56
2024-02-22T00:29:45.491Z,5.53
2024-02-22T00:30:19.471Z,5.53
2024-02-22T00:30:52.752Z,5.49
2024-02-22T00:31:24.544Z,5.49
2024-02-22T00:31:56.274Z,5.44
2024-02-22T00:32:28.048Z,5.43
2024-02-22T00:32:59.867Z,5.50
2024-02-22T00:33:31.756Z,5.54
2024-02-22T00:34:03.567Z,5.61
2024-02-22T00:34:35.444Z,5.61
2024-02-22T00:35:07.580Z,5.51
2024-02-22T00:35:39.399Z,5.49
2024-02-22T00:36:11.429Z,5.35
2024-02-22T00:36:43.726Z,5.38
2024-02-22T00:37:15.486Z,5.46
2024-02-22T00:37:47.268Z,5.38
2024-02-22T00:38:19.161Z,5.28
2024-02-22T00:38:50.985Z,5.38
2024-02-22T00:39:22.779Z,5.40
2024-02-22T00:39:54.484Z,5.49
2024-02-22T00:40:26.477Z,5.50
2024-02-22T00:40:58.359Z,5.44
2024-02-22T00:41:30.233Z,5.47
2024-02-22T00:42:01.956Z,5.50
2024-02-22T00:42:33.821Z,5.57
2024-02-22T00:43:05.848Z,5.63
2024-02-22T00:43:37.629Z,5.68
2024-02-22T00:44:09.658Z,5.73
2024-02-22T00:44:42.945Z,5.71
2024-02-22T00:45:14.736Z,5.73
2024-02-22T00:45:46.564Z,5.80
2024-02-22T00:46:18.325Z,5.77
2024-02-22T00:46:54.005Z,5.77
2024-02-22T00:47:26.260Z,5.81
2024-02-22T00:48:00.211Z,5.81
2024-02-22T00:48:32.174Z,5.77
2024-02-22T00:49:04.453Z,5.87
2024-02-22T00:49:36.421Z,5.83
2024-02-22T00:50:09.735Z,5.83
2024-02-22T00:50:41.796Z,5.84
2024-02-22T00:51:13.705Z,5.84
2024-02-22T00:51:45.483Z,5.91
2024-02-22T00:52:17.430Z,5.93
2024-02-22T00:52:52.276Z,5.93
2024-02-22T00:53:24.463Z,5.91
2024-02-22T00:53:56.282Z,5.95
2024-02-22T00:54:28.038Z,5.97
2024-02-22T00:54:59.771Z,5.95
2024-02-22T00:55:31.543Z,5.91
2024-02-22T00:56:03.609Z,5.90
2024-02-22T00:56:35.368Z,5.94
2024-02-22T00:57:07.101Z,5.97
2024-02-22T00:57:38.912Z,6.01
2024-02-22T00:58:11.473Z,5.91
2024-02-22T00:58:44.095Z,5.80
2024-02-22T00:59:16.246Z,5.81
2024-02-22T00:59:48.166Z,5.81
2024-02-22T01:00:20.103Z,5.84
2024-02-22T01:00:51.919Z,5.84
2024-02-22T01:01:23.853Z,5.84
2024-02-22T01:01:55.865Z,5.84
2024-02-22T01:02:27.804Z,5.86
2024-02-22T01:02:59.553Z,5.87
2024-02-22T01:03:32.783Z,5.81
2024-02-22T01:04:04.888Z,5.83
2024-02-22T01:04:36.836Z,5.74
2024-02-22T01:05:09.768Z,5.81
2024-02-22T01:05:41.910Z,5.83
2024-02-22T01:06:16.139Z,5.77
2024-02-22T01:06:47.956Z,5.78
2024-02-22T01:07:21.475Z,5.77
2024-02-22T01:07:53.256Z,5.81
2024-02-22T01:08:25.094Z,5.81
2024-02-22T01:08:56.797Z,5.80
2024-02-22T01:09:28.533Z,5.78
2024-02-22T01:10:00.484Z,5.77
2024-02-22T01:10:32.296Z,5.81
2024-02-22T01:11:05.077Z,5.80
2024-02-22T01:11:37.102Z,5.81
2024-02-22T01:12:08.971Z,5.81
2024-02-22T01:12:40.724Z,5.73
2024-02-22T01:13:12.619Z,5.81
2024-02-22T01:13:44.488Z,5.83
2024-02-22T01:14:17.384Z,5.83
2024-02-22T01:14:49.240Z,5.81
2024-02-22T01:15:21.074Z,5.81
2024-02-22T01:15:52.894Z,5.81
2024-02-22T01:16:24.654Z,5.78
2024-02-22T01:16:57.326Z,5.84
2024-02-22T01:17:29.172Z,5.90
2024-02-22T01:18:01.043Z,5.80
2024-02-22T01:18:33.213Z,5.78
2024-02-22T01:19:05.290Z,5.84
2024-02-22T01:19:37.124Z,5.86
2024-02-22T01:20:12.512Z,5.87
2024-02-22T01:20:44.688Z,5.90
2024-02-22T01:21:16.526Z,5.91
2024-02-22T01:21:48.332Z,5.90
2024-02-22T01:22:20.093Z,5.88
2024-02-22T01:22:52.014Z,5.88
2024-02-22T01:23:24.710Z,5.87
2024-02-22T01:23:56.483Z,5.93
2024-02-22T01:24:28.295Z,5.95
2024-02-22T01:25:00.000Z,5.87
2024-02-22T01:25:31.810Z,5.91
2024-02-22T01:26:06.061Z,5.90
2024-02-22T01:26:38.249Z,5.95
2024-02-22T01:27:10.077Z,5.95
2024-02-22T01:27:41.936Z,5.97
2024-02-22T01:28:14.386Z,5.97
2024-02-22T01:28:46.162Z,5.98
2024-02-22T01:29:17.993Z,5.97
2024-02-22T01:29:49.850Z,5.99
2024-02-22T01:30:21.595Z,5.98
2024-02-22T01:30:53.337Z,5.95
2024-02-22T01:31:25.143Z,5.97
2024-02-22T01:31:56.879Z,5.93
2024-02-22T01:32:28.709Z,5.95
2024-02-22T01:33:00.555Z,5.97
2024-02-22T01:33:32.687Z,5.99
2024-02-22T01:34:04.520Z,5.94
2024-02-22T01:34:36.443Z,5.99
2024-02-22T01:35:10.112Z,5.95
2024-02-22T01:35:42.052Z,5.97
2024-02-22T01:36:14.040Z,5.93
2024-02-22T01:36:45.766Z,5.94
2024-02-22T01:37:17.491Z,5.94
2024-02-22T01:37:49.566Z,5.97
2024-02-22T01:38:21.454Z,5.97
2024-02-22T01:38:53.239Z,5.98
2024-02-22T01:39:25.036Z,5.94
2024-02-22T01:39:56.832Z,5.94
2024-02-22T01:40:28.690Z,5.98
2024-02-22T01:41:00.493Z,5.99
2024-02-22T01:41:32.409Z,5.95
2024-02-22T01:42:04.272Z,6.01
2024-02-22T01:42:35.989Z,6.04
2024-02-22T01:43:07.819Z,6.01
2024-02-22T01:43:39.704Z,6.02
2024-02-22T01:44:12.577Z,5.98
2024-02-22T01:44:44.485Z,6.02
2024-02-22T01:45:16.344Z,6.05
2024-02-22T01:45:48.221Z,6.04
2024-02-22T01:46:20.062Z,5.99
2024-02-22T01:46:51.854Z,5.97
2024-02-22T01:47:23.625Z,5.98
2024-02-22T01:47:55.616Z,5.97
2024-02-22T01:48:27.615Z,5.99
2024-02-22T01:49:00.675Z,6.01
2024-02-22T01:49:32.603Z,6.02
2024-02-22T01:50:05.592Z,6.02
2024-02-22T01:50:40.319Z,6.02
2024-02-22T01:51:12.055Z,5.99
2024-02-22T01:51:43.997Z,6.02
2024-02-22T01:52:15.832Z,5.99
2024-02-22T01:52:47.811Z,5.95
2024-02-22T01:53:24.638Z,6.01
2024-02-22T01:53:57.405Z,5.98
2024-02-22T01:54:29.160Z,5.98
2024-02-22T01:55:01.628Z,6.01
2024-02-22T01:55:33.718Z,6.02
2024-02-22T01:56:07.471Z,5.97
2024-02-22T01:56:39.246Z,5.97
2024-02-22T01:57:11.045Z,5.95
2024-02-22T01:57:42.916Z,6.01
2024-02-22T01:58:15.320Z,5.99
2024-02-22T01:58:49.308Z,6.01
2024-02-22T01:59:21.810Z,6.04
2024-02-22T01:59:54.384Z,6.07
2024-02-22T02:00:28.485Z,6.07
2024-02-22T02:01:02.440Z,6.07
2024-02-22T02:01:35.585Z,6.07
2024-02-22T02:02:07.428Z,6.07
2024-02-22T02:02:39.566Z,6.05
2024-02-22T02:03:11.488Z,6.08
2024-02-22T02:03:44.320Z,6.09
2024-02-22T02:04:16.083Z,6.11
2024-02-22T02:04:48.224Z,6.12
2024-02-22T02:05:20.264Z,6.15
2024-02-22T02:05:52.068Z,6.08
2024-02-22T02:06:24.116Z,6.09
2024-02-22T02:06:55.876Z,6.04
2024-02-22T02:07:27.621Z,6.11
2024-02-22T02:08:00.429Z,6.07
2024-02-22T02:08:32.604Z,6.09
2024-02-22T02:09:04.325Z,6.09
2024-02-22T02:09:36.065Z,6.08
2024-02-22T02:10:12.083Z,6.07
2024-02-22T02:10:44.170Z,6.04
2024-02-22T02:11:16.266Z,5.99
2024-02-22T02:11:48.586Z,6.05
2024-02-22T02:12:26.225Z,6.04
2024-02-22T02:13:05.051Z,6.05
2024-02-22T02:13:36.945Z,6.08
2024-02-22T02:14:09.259Z,6.07
2024-02-22T02:14:41.006Z,6.02
2024-02-22T02:15:12.907Z,6.05
2024-02-22T02:15:44.687Z,6.09
2024-02-22T02:16:16.462Z,6.08
2024-02-22T02:16:48.549Z,6.09
2024-02-22T02:17:20.324Z,6.08
2024-02-22T02:17:52.133Z,6.07
2024-02-22T02:18:24.010Z,6.09
2024-02-22T02:18:56.570Z,6.08
2024-02-22T02:19:30.771Z,6.12
2024-02-22T02:20:08.800Z,6.07
2024-02-22T02:21:05.204Z,6.05
2024-02-22T02:21:58.215Z,6.07
2024-02-22T02:22:48.528Z,6.12
2024-02-22T02:23:42.963Z,6.14
2024-02-22T02:24:42.928Z,6.12
2024-02-22T02:25:14.798Z,6.14
2024-02-22T02:25:47.249Z,6.17
2024-02-22T02:26:19.354Z,6.14
2024-02-22T02:26:51.978Z,6.17
2024-02-22T02:27:23.911Z,6.19
2024-02-22T02:27:56.241Z,6.21
2024-02-22T02:28:28.640Z,6.18
2024-02-22T02:29:00.473Z,6.18
2024-02-22T02:29:32.285Z,6.17
2024-02-22T02:30:06.448Z,6.17
2024-02-22T02:30:38.240Z,6.18
2024-02-22T02:31:10.060Z,6.18
2024-02-22T02:31:41.818Z,6.18
2024-02-22T02:32:13.669Z,6.19
2024-02-22T02:32:45.740Z,6.25
2024-02-22T02:33:17.634Z,6.25
2024-02-22T02:33:49.516Z,6.19
2024-02-22T02:34:21.490Z,6.17
2024-02-22T02:34:53.280Z,6.14
2024-02-22T02:35:25.099Z,6.17
2024-02-22T02:35:56.886Z,6.14
2024-02-22T02:36:28.649Z,6.11
2024-02-22T02:37:00.416Z,6.09
2024-02-22T02:37:32.232Z,6.15
2024-02-22T02:38:05.601Z,6.14
2024-02-22T02:38:37.382Z,6.09
2024-02-22T02:39:09.729Z,6.17
2024-02-22T02:39:42.877Z,6.14
2024-02-22T02:40:14.705Z,6.11
2024-02-22T02:40:46.487Z,6.09
2024-02-22T02:41:18.396Z,6.12
2024-02-22T02:41:50.167Z,6.11
2024-02-22T02:42:21.890Z,6.17
2024-02-22T02:42:53.604Z,6.24
2024-02-22T02:43:25.353Z,6.09
2024-02-22T02:43:57.325Z,6.11
2024-02-22T02:44:29.095Z,6.05
2024-02-22T02:45:00.948Z,6.08
2024-02-22T02:45:32.997Z,6.05
2024-02-22T02:46:04.976Z,6.01
2024-02-22T02:46:36.785Z,5.99
2024-02-22T02:47:10.048Z,5.99
2024-02-22T02:47:42.458Z,6.02
2024-02-22T02:48:15.523Z,5.99
2024-02-22T02:48:47.431Z,6.02
2024-02-22T02:49:19.403Z,5.95
2024-02-22T02:49:51.218Z,5.91
2024-02-22T02:50:22.992Z,5.91
2024-02-22T02:50:56.658Z,5.93
2024-02-22T02:51:29.782Z,5.93
2024-02-22T02:52:01.517Z,5.93
2024-02-22T02:52:33.245Z,5.97
2024-02-22T02:53:05.018Z,5.93
2024-02-22T02:53:36.874Z,5.90
2024-02-22T02:54:08.825Z,5.84
2024-02-22T02:54:40.615Z,5.78
2024-02-22T02:55:15.175Z,5.78
2024-02-22T02:55:47.067Z,5.81
2024-02-22T02:56:18.986Z,5.81
2024-02-22T02:56:50.778Z,5.87
2024-02-22T02:57:23.468Z,5.86
2024-02-22T02:57:55.903Z,5.83
2024-02-22T02:58:27.694Z,5.71
2024-02-22T02:58:59.555Z,5.70
2024-02-22T02:59:31.591Z,5.71
2024-02-22T03:00:04.322Z,5.60
2024-02-22T03:00:36.055Z,5.71
2024-02-22T03:01:08.975Z,5.75
2024-02-22T03:01:49.451Z,5.74
2024-02-22T03:02:22.077Z,5.78
2024-02-22T03:02:53.920Z,5.64
2024-02-22T03:03:26.117Z,5.64
2024-02-22T03:03:57.858Z,5.63
2024-02-22T03:04:29.868Z,5.56
2024-02-22T03:05:01.726Z,5.57
2024-02-22T03:05:33.836Z,5.60
2024-02-22T03:06:06.040Z,5.63
2024-02-22T03:06:37.926Z,5.64
2024-02-22T03:07:10.138Z,5.63
2024-02-22T03:07:42.112Z,5.70
2024-02-22T03:08:13.958Z,5.61
2024-02-22T03:08:45.762Z,5.68
2024-02-22T03:09:17.476Z,5.66
2024-02-22T03:09:49.700Z,5.63
2024-02-22T03:10:21.931Z,5.63
2024-02-22T03:10:53.725Z,5.60
2024-02-22T03:11:25.569Z,5.63
2024-02-22T03:11:57.477Z,5.64
2024-02-22T03:12:29.383Z,5.64
2024-02-22T03:13:08.395Z,5.66
2024-02-22T03:13:40.172Z,5.63
2024-02-22T03:14:12.144Z,5.59
2024-02-22T03:14:44.644Z,5.59
2024-02-22T03:15:16.953Z,5.63
2024-02-22T03:15:50.025Z,5.59
2024-02-22T03:16:21.773Z,5.57
2024-02-22T03:16:53.636Z,5.53
2024-02-22T03:17:25.962Z,5.50
2024-02-22T03:17:57.705Z,5.47
2024-02-22T03:18:29.477Z,5.46
2024-02-22T03:19:01.456Z,5.42
2024-02-22T03:19:33.428Z,5.42
2024-02-22T03:20:11.531Z,5.38
2024-02-22T03:20:43.574Z,5.43
2024-02-22T03:21:15.320Z,5.39
2024-02-22T03:21:47.048Z,5.36
2024-02-22T03:22:19.685Z,5.39
2024-02-22T03:22:51.424Z,5.39
2024-02-22T03:23:24.805Z,5.42
2024-02-22T03:23:57.090Z,5.38
2024-02-22T03:24:28.789Z,5.30
2024-02-22T03:25:00.566Z,5.32
2024-02-22T03:25:32.359Z,5.32
2024-02-22T03:26:04.657Z,5.36
2024-02-22T03:26:37.734Z,5.32
2024-02-22T03:27:12.374Z,5.38
2024-02-22T03:27:45.646Z,5.36
2024-02-22T03:28:18.133Z,5.35
2024-02-22T03:28:49.964Z,5.38
2024-02-22T03:29:23.077Z,5.32
2024-02-22T03:29:55.016Z,5.30
2024-02-22T03:30:27.332Z,5.26
2024-02-22T03:31:00.441Z,5.28
2024-02-22T03:31:32.329Z,5.25
2024-02-22T03:32:04.594Z,5.23
2024-02-22T03:32:37.863Z,5.19
2024-02-22T03:33:10.178Z,5.25
2024-02-22T03:33:42.608Z,5.18
2024-02-22T03:34:14.513Z,5.18
2024-02-22T03:34:46.368Z,5.22
2024-02-22T03:35:18.201Z,5.25
2024-02-22T03:35:50.444Z,5.23
2024-02-22T03:36:23.300Z,5.22
2024-02-22T03:36:55.075Z,5.20
2024-02-22T03:37:26.849Z,5.08
2024-02-22T03:37:58.748Z,5.08
2024-02-22T03:38:30.610Z,5.05
2024-02-22T03:39:04.185Z,5.05
2024-02-22T03:39:36.964Z,5.07
2024-02-22T03:40:10.118Z,5.11
2024-02-22T03:40:42.003Z,5.12
2024-02-22T03:41:25.566Z,5.12
2024-02-22T03:41:57.927Z,5.15
2024-02-22T03:42:29.918Z,5.09
2024-02-22T03:43:02.102Z,5.13
2024-02-22T03:43:35.039Z,5.16
2024-02-22T03:44:07.102Z,5.15
2024-02-22T03:44:38.841Z,5.18
2024-02-22T03:45:11.184Z,5.12
2024-02-22T03:45:42.961Z,5.09
2024-02-22T03:46:14.702Z,5.08
2024-02-22T03:46:50.324Z,5.08
2024-02-22T03:47:22.701Z,5.09
2024-02-22T03:47:54.449Z,5.07
2024-02-22T03:48:27.759Z,5.01
2024-02-22T03:48:59.588Z,5.07
2024-02-22T03:49:31.385Z,5.08
2024-02-22T03:50:05.345Z,5.11
2024-02-22T03:50:37.141Z,5.08
2024-02-22T03:51:08.842Z,5.08
2024-02-22T03:51:41.073Z,5.07
2024-02-22T03:52:14.872Z,5.05
2024-02-22T03:52:46.910Z,5.05
2024-02-22T03:53:19.121Z,5.11
2024-02-22T03:53:51.289Z,5.11
2024-02-22T03:54:23.031Z,5.02
2024-02-22T03:54:54.764Z,5.02
2024-02-22T03:55:26.501Z,4.96
2024-02-22T03:56:00.935Z,5.02
2024-02-22T03:56:34.597Z,5.01
2024-02-22T03:57:06.462Z,5.04
2024-02-22T03:57:38.627Z,5.07
2024-02-22T03:58:10.864Z,5.05
2024-02-22T03:58:42.633Z,5.09
2024-02-22T03:59:14.455Z,5.04
2024-02-22T03:59:46.240Z,5.07
2024-02-22T04:00:18.144Z,5.04
2024-02-22T04:00:49.940Z,5.08
2024-02-22T04:01:21.730Z,5.11
2024-02-22T04:01:54.260Z,5.08
2024-02-22T04:02:26.316Z,5.11
2024-02-22T04:02:58.264Z,4.99
2024-02-22T04:03:30.226Z,5.02
2024-02-22T04:04:02.163Z,5.04
2024-02-22T04:04:34.406Z,5.05
2024-02-22T04:05:07.552Z,5.01
2024-02-22T04:05:39.499Z,4.98
2024-02-22T04:06:11.448Z,4.98
2024-02-22T04:06:43.372Z,4.95
2024-02-22T04:07:15.081Z,4.93
2024-02-22T04:07:46.915Z,4.95
2024-02-22T04:08:18.768Z,5.02
2024-02-22T04:08:50.555Z,5.05
2024-02-22T04:09:22.277Z,5.09
2024-02-22T04:09:56.770Z,5.09
2024-02-22T04:10:28.647Z,5.12
2024-02-22T04:11:00.695Z,5.11
2024-02-22T04:11:32.758Z,5.08
2024-02-22T04:12:04.971Z,5.07
2024-02-22T04:12:37.070Z,5.11
2024-02-22T04:13:10.276Z,5.12
2024-02-22T04:13:42.259Z,5.13
2024-02-22T04:14:14.134Z,5.11
2024-02-22T04:14:46.108Z,5.13
2024-02-22T04:15:17.835Z,5.15
2024-02-22T04:15:50.572Z,5.19
2024-02-22T04:16:22.443Z,5.23
2024-02-22T04:16:54.284Z,5.19
2024-02-22T04:17:26.038Z,5.19
2024-02-22T04:17:58.645Z,5.20
2024-02-22T04:18:30.571Z,5.23
2024-02-22T04:19:02.509Z,5.23
2024-02-22T04:19:34.497Z,5.22
2024-02-22T04:20:08.778Z,5.20
2024-02-22T04:20:40.631Z,5.25
2024-02-22T04:21:12.801Z,5.28
2024-02-22T04:21:44.696Z,5.32
2024-02-22T04:22:16.682Z,5.36
2024-02-22T04:22:50.540Z,5.36
2024-02-22T04:23:22.514Z,5.33
2024-02-22T04:23:54.339Z,5.33
2024-02-22T04:24:26.064Z,5.28
2024-02-22T04:24:57.935Z,5.33
2024-02-22T04:25:29.713Z,5.32
2024-02-22T04:26:01.520Z,5.29
2024-02-22T04:26:33.599Z,5.28
2024-02-22T04:27:05.505Z,5.29
2024-02-22T04:27:37.893Z,5.33
2024-02-22T04:28:12.368Z,5.35
2024-02-22T04:28:44.827Z,5.35
2024-02-22T04:29:16.710Z,5.30
2024-02-22T04:29:48.449Z,5.30
2024-02-22T04:30:20.208Z,5.29
2024-02-22T04:30:51.923Z,5.30
2024-02-22T04:31:23.633Z,5.33
2024-02-22T04:31:55.420Z,5.29
2024-02-22T04:32:28.169Z,5.28
2024-02-22T04:33:00.106Z,5.26
2024-02-22T04:33:33.804Z,5.29
2024-02-22T04:34:05.594Z,5.29
2024-02-22T04:34:38.169Z,5.29
2024-02-22T04:35:12.175Z,5.32
2024-02-22T04:35:48.198Z,5.30
2024-02-22T04:36:21.797Z,5.29
2024-02-22T04:36:53.610Z,5.25
2024-02-22T04:37:25.412Z,5.25
2024-02-22T04:37:57.153Z,5.28
2024-02-22T04:38:29.204Z,5.28
2024-02-22T04:39:01.146Z,5.28
2024-02-22T04:39:32.910Z,5.23
2024-02-22T04:40:05.740Z,5.23
2024-02-22T04:40:41.665Z,5.25
2024-02-22T04:41:21.456Z,5.30
2024-02-22T04:41:56.200Z,5.30
2024-02-22T04:42:27.979Z,5.30
2024-02-22T04:42:59.681Z,5.29
2024-02-22T04:43:31.446Z,5.28
2024-02-22T04:44:03.743Z,5.23
2024-02-22T04:44:35.464Z,5.22
2024-02-22T04:45:07.915Z,5.22
2024-02-22T04:45:39.695Z,5.28
2024-02-22T04:46:11.416Z,5.18
2024-02-22T04:46:43.223Z,5.20
2024-02-22T04:47:15.202Z,5.22
2024-02-22T04:47:47.174Z,5.19
2024-02-22T04:48:19.036Z,5.18
2024-02-22T04:48:50.863Z,5.16
2024-02-22T04:49:22.632Z,5.18
2024-02-22T04:49:54.400Z,5.19
2024-02-22T04:50:26.216Z,5.22
2024-02-22T04:50:57.957Z,5.19
2024-02-22T04:51:33.029Z,5.15
2024-02-22T04:52:05.294Z,5.19
2024-02-22T04:52:37.037Z,5.18
2024-02-22T04:53:09.202Z,5.16
2024-02-22T04:53:40.998Z,5.18
2024-02-22T04:54:12.743Z,5.15
2024-02-22T04:54:45.336Z,5.16
2024-02-22T04:55:18.868Z,5.18
2024-02-22T04:55:50.655Z,5.20
2024-02-22T04:56:22.440Z,5.25
2024-02-22T04:56:54.527Z,5.22
2024-02-22T04:57:27.608Z,5.25
2024-02-22T04:58:01.204Z,5.28
2024-02-22T04:58:33.432Z,5.26
2024-02-22T04:59:05.939Z,5.28
2024-02-22T04:59:39.001Z,5.25
2024-02-22T05:00:12.080Z,5.20
2024-02-22T05:00:46.204Z,5.20
2024-02-22T05:01:19.261Z,5.16
2024-02-22T05:01:51.181Z,5.19
2024-02-22T05:02:24.248Z,5.18
2024-02-22T05:02:56.018Z,5.20
2024-02-22T05:03:27.764Z,5.16
2024-02-22T05:04:00.043Z,5.19
2024-02-22T05:04:31.993Z,5.20
2024-02-22T05:05:05.034Z,5.20
2024-02-22T05:05:37.019Z,5.16
2024-02-22T05:06:08.938Z,5.20
2024-02-22T05:06:40.728Z,5.18
2024-02-22T05:07:12.520Z,5.19
2024-02-22T05:07:44.803Z,5.20
2024-02-22T05:08:16.761Z,5.15
2024-02-22T05:08:48.727Z,5.18
2024-02-22T05:09:20.435Z,5.19
2024-02-22T05:09:52.198Z,5.18
2024-02-22T05:10:24.227Z,5.13
2024-02-22T05:10:56.644Z,5.16
2024-02-22T05:11:29.276Z,5.19
2024-02-22T05:12:01.289Z,5.20
2024-02-22T05:12:33.193Z,5.19
2024-02-22T05:13:05.099Z,5.18
2024-02-22T05:13:36.917Z,5.18
2024-02-22T05:14:10.555Z,5.16
2024-02-22T05:14:45.903Z,5.22
2024-02-22T05:15:17.727Z,5.23
2024-02-22T05:15:49.624Z,5.20
2024-02-22T05:16:21.345Z,5.18
2024-02-22T05:16:53.168Z,5.18
2024-02-22T05:17:25.258Z,5.22
2024-02-22T05:17:58.300Z,5.18
2024-02-22T05:18:31.783Z,5.09
2024-02-22T05:19:03.653Z,5.20
2024-02-22T05:19:35.520Z,5.16
2024-02-22T05:20:08.880Z,5.16
2024-02-22T05:20:40.858Z,5.12
2024-02-22T05:21:12.569Z,5.19
2024-02-22T05:21:44.257Z,5.22
2024-02-22T05:22:16.008Z,5.25
2024-02-22T05:22:48.053Z,5.26
2024-02-22T05:23:19.894Z,5.23
2024-02-22T05:23:51.706Z,5.25
2024-02-22T05:24:23.946Z,5.16
2024-02-22T05:24:55.747Z,5.19
2024-02-22T05:25:27.536Z,5.22
2024-02-22T05:25:59.580Z,5.23
2024-02-22T05:26:31.322Z,5.19
2024-02-22T05:27:03.211Z,5.16
2024-02-22T05:27:37.417Z,5.19
2024-02-22T05:28:10.388Z,5.20
2024-02-22T05:28:43.059Z,5.20
2024-02-22T05:29:15.161Z,5.26
2024-02-22T05:29:47.760Z,5.22
2024-02-22T05:30:19.501Z,5.23
2024-02-22T05:30:52.252Z,5.22
2024-02-22T05:31:25.495Z,5.22
2024-02-22T05:31:59.241Z,5.18
2024-02-22T05:32:32.551Z,5.15
2024-02-22T05:33:04.869Z,5.20
2024-02-22T05:33:36.761Z,5.19
2024-02-22T05:34:09.921Z,5.15
2024-02-22T05:34:41.887Z,5.19
2024-02-22T05:35:13.674Z,5.16
2024-02-22T05:35:45.519Z,5.13
2024-02-22T05:36:21.602Z,5.15
2024-02-22T05:36:53.348Z,5.13
2024-02-22T05:37:25.172Z,5.19
2024-02-22T05:37:56.970Z,5.19
2024-02-22T05:38:28.761Z,5.15
2024-02-22T05:39:02.838Z,5.20
2024-02-22T05:39:34.582Z,5.18
2024-02-22T05:40:09.397Z,5.13
2024-02-22T05:40:42.475Z,5.18
2024-02-22T05:41:15.881Z,5.16
2024-02-22T05:41:47.660Z,5.16
2024-02-22T05:42:19.408Z,5.13
2024-02-22T05:42:51.122Z,5.13
2024-02-22T05:43:22.914Z,5.15
2024-02-22T05:43:54.751Z,5.11
2024-02-22T05:44:27.000Z,5.12
2024-02-22T05:44:58.838Z,5.11
2024-02-22T05:45:48.397Z,5.11
2024-02-22T05:46:20.158Z,5.11
2024-02-22T05:46:51.920Z,5.12
2024-02-22T05:47:23.785Z,5.13
2024-02-22T05:47:56.352Z,5.12
2024-02-22T05:48:28.183Z,5.12
2024-02-22T05:49:00.037Z,5.13
2024-02-22T05:49:31.840Z,5.18
2024-02-22T05:50:04.589Z,5.16
2024-02-22T05:50:36.809Z,5.16
2024-02-22T05:51:09.786Z,5.19
2024-02-22T05:51:41.952Z,5.22
2024-02-22T05:52:13.735Z,5.19
2024-02-22T05:52:45.577Z,5.16
2024-02-22T05:53:17.433Z,5.13
2024-02-22T05:53:49.607Z,5.18
2024-02-22T05:54:23.748Z,5.15
2024-02-22T05:54:55.682Z,5.19
2024-02-22T05:55:27.589Z,5.22
2024-02-22T05:55:59.399Z,5.25
2024-02-22T05:56:31.144Z,5.26
2024-02-22T05:57:04.231Z,5.23
2024-02-22T05:57:36.010Z,5.26
2024-02-22T05:58:07.844Z,5.30
2024-02-22T05:58:39.598Z,5.30
2024-02-22T05:59:11.400Z,5.26
2024-02-22T05:59:43.160Z,5.26
2024-02-22T06:00:16.664Z,5.23
2024-02-22T06:00:48.739Z,5.18
2024-02-22T06:01:20.550Z,5.20
2024-02-22T06:01:52.553Z,5.16
2024-02-22T06:02:24.487Z,5.18
2024-02-22T06:02:56.492Z,5.20
2024-02-22T06:03:28.449Z,5.25
2024-02-22T06:04:00.218Z,5.23
2024-02-22T06:04:32.081Z,5.22
2024-02-22T06:05:04.106Z,5.18
2024-02-22T06:05:36.774Z,5.22
2024-02-22T06:06:09.039Z,5.20
2024-02-22T06:06:40.775Z,5.25
2024-02-22T06:07:12.476Z,5.29
2024-02-22T06:07:44.545Z,5.32
2024-02-22T06:08:16.318Z,5.33
2024-02-22T06:08:48.022Z,5.36
2024-02-22T06:09:20.054Z,5.36
2024-02-22T06:09:51.758Z,5.38
2024-02-22T06:10:23.791Z,5.39
2024-02-22T06:10:55.728Z,5.39
2024-02-22T06:11:27.754Z,5.44
2024-02-22T06:11:59.708Z,5.50
2024-02-22T06:12:31.497Z,5.54
2024-02-22T06:13:03.237Z,5.47
2024-02-22T06:13:35.254Z,5.47
2024-02-22T06:14:07.081Z,5.51
2024-02-22T06:14:38.821Z,5.49
2024-02-22T06:15:11.512Z,5.50
2024-02-22T06:15:43.641Z,5.56
2024-02-22T06:16:15.828Z,5.54
2024-02-22T06:16:47.628Z,5.56
2024-02-22T06:17:19.435Z,5.60
2024-02-22T06:17:51.410Z,5.56
2024-02-22T06:18:23.288Z,5.57
2024-02-22T06:18:55.492Z,5.59
2024-02-22T06:19:27.435Z,5.63
2024-02-22T06:19:59.501Z,5.63
2024-02-22T06:20:32.780Z,5.64
2024-02-22T06:21:04.729Z,5.59
2024-02-22T06:21:36.562Z,5.59
2024-02-22T06:22:08.402Z,5.71
2024-02-22T06:22:40.333Z,5.61
2024-02-22T06:23:13.358Z,6.07
2024-02-22T06:23:45.110Z,5.80
2024-02-22T06:24:17.482Z,5.86
2024-02-22T06:24:49.300Z,5.74
2024-02-22T06:25:21.086Z,5.87
2024-02-22T06:25:52.967Z,5.99
2024-02-22T06:26:25.347Z,5.86
2024-02-22T06:26:57.328Z,5.83
2024-02-22T06:27:30.035Z,6.14
2024-02-22T06:28:01.729Z,5.91
2024-02-22T06:28:35.493Z,5.86
2024-02-22T06:29:07.653Z,5.77
2024-02-22T06:29:42.788Z,5.74
2024-02-22T06:30:16.381Z,5.78
2024-02-22T06:30:48.220Z,5.77
2024-02-22T06:31:20.495Z,6.46
2024-02-22T06:31:52.250Z,6.18
2024-02-22T06:32:25.249Z,6.69
2024-02-22T06:32:57.154Z,6.54
2024-02-22T06:33:29.086Z,6.24
2024-02-22T06:34:02.302Z,6.24
2024-02-22T06:34:34.189Z,6.56
2024-02-22T06:35:08.366Z,6.53
2024-02-22T06:35:40.229Z,6.07
2024-02-22T06:36:11.995Z,6.50
2024-02-22T06:36:43.784Z,6.21
2024-02-22T06:37:16.836Z,6.29
2024-02-22T06:37:49.005Z,6.30
2024-02-22T06:38:20.960Z,7.90
2024-02-22T06:38:52.688Z,7.15
2024-02-22T06:39:29.203Z,7.91
2024-02-22T06:40:01.443Z,7.31
2024-02-22T06:40:33.278Z,6.72
2024-02-22T06:41:05.326Z,6.80
2024-02-22T06:41:37.179Z,6.54
2024-02-22T06:42:09.340Z,6.45
2024-02-22T06:42:41.543Z,6.42
2024-02-22T06:43:13.729Z,6.38
2024-02-22T06:43:46.192Z,6.32
2024-02-22T06:44:18.112Z,6.47
2024-02-22T06:44:49.908Z,6.53
2024-02-22T06:45:25.130Z,6.36
2024-02-22T06:45:56.970Z,6.32
2024-02-22T06:46:28.710Z,6.15
2024-02-22T06:47:00.552Z,6.14
2024-02-22T06:47:32.341Z,6.09
2024-02-22T06:48:04.546Z,6.15
2024-02-22T06:48:36.517Z,6.14
2024-02-22T06:49:10.055Z,6.08
2024-02-22T06:49:42.593Z,5.97
2024-02-22T06:50:14.478Z,6.07
2024-02-22T06:50:47.147Z,6.08
2024-02-22T06:51:18.968Z,6.19
2024-02-22T06:51:50.717Z,6.15
2024-02-22T06:52:24.260Z,6.11
2024-02-22T06:52:56.021Z,6.12
2024-02-22T06:53:27.745Z,6.15
2024-02-22T06:53:59.501Z,6.21
2024-02-22T06:54:31.309Z,6.19
2024-02-22T06:55:04.124Z,6.21
2024-02-22T06:55:36.408Z,6.19
2024-02-22T06:56:08.887Z,6.22
2024-02-22T06:56:40.754Z,6.14
2024-02-22T06:57:12.800Z,6.14
2024-02-22T06:57:44.592Z,6.17
2024-02-22T06:58:16.355Z,6.18
2024-02-22T06:58:48.186Z,6.28
2024-02-22T06:59:20.231Z,6.19
2024-02-22T06:59:52.043Z,6.19
2024-02-22T07:00:25.803Z,6.30
2024-02-22T07:00:59.792Z,6.28
2024-02-22T07:01:33.721Z,6.24
2024-02-22T07:02:06.766Z,6.28
2024-02-22T07:02:38.774Z,6.24
2024-02-22T07:03:12.415Z,6.26
2024-02-22T07:03:44.273Z,6.28
2024-02-22T07:04:16.868Z,6.24
2024-02-22T07:04:49.016Z,6.22
2024-02-22T07:05:22.371Z,6.22
2024-02-22T07:05:54.242Z,6.28
2024-02-22T07:06:26.058Z,6.25
2024-02-22T07:06:58.618Z,6.24
2024-02-22T07:07:30.609Z,6.28
2024-02-22T07:08:02.535Z,6.32
2024-02-22T07:08:34.397Z,6.28
2024-02-22T07:09:06.164Z,6.28
2024-02-22T07:09:39.413Z,6.28
2024-02-22T07:10:16.474Z,6.26
2024-02-22T07:10:48.373Z,6.30
2024-02-22T07:11:20.336Z,6.35
2024-02-22T07:11:52.744Z,6.30
2024-02-22T07:12:25.417Z,6.26